• Join FlightAware (Why Join?)
  • Login
  • US Flag 
Rudolph Flight #1: Arrived! 
06:28AM EST


 

Airport Tracker/Info


-or-


 

Live Flight TrackerFlight Track Log ✈ CNK9897 ✈ 11-Jul-2013 ✈ CYXH - CYYC

Flight Track Log - Related Links

Times and Time Zones

All times are in EDT time to prevent confusion due to time zone crossing. See the CNK9897 flight status page for this flight to view local times or setup timezone preferences in your user account.

Time Position Orientation Groundspeed Altitude Reporting Facility
EDT Latitude Longitude Course Direction KTS MPH feet Rate Location/Type
01:18PM 49.9667 -110.8167 270° West 130 150 5,900  Level Edmonton Center
01:19PM 49.9667 -110.8833 270° West 160 184 7,500 1,500 Climbing Edmonton Center
01:20PM 49.9667 -110.9667 270° West 170 196 9,000 1,560 Climbing Edmonton Center
01:21PM 49.9500 -111.0500 253° West 170 196 10,700 1,500 Climbing Edmonton Center
01:22PM 49.9500 -111.1167 270° West 170 196 12,100 1,380 Climbing Edmonton Center
01:23PM 49.9500 -111.1667 270° West 180 207 13,500 1,440 Climbing Edmonton Center
01:24PM 49.9500 -111.2500 270° West 180 207 15,000 1,260 Climbing Edmonton Center
01:25PM 49.9500 -111.3333 270° West 180 207 16,100 480 Climbing Edmonton Center
01:26PM 49.9833 -111.4333 297° West 220 253 16,000  Descending Edmonton Center
01:27PM 50.0167 -111.5167 302° West 240 276 16,100  Climbing Edmonton Center
01:28PM 50.0500 -111.6167 297° West 250 288 16,100 -60 Level Edmonton Center
01:29PM 50.0833 -111.7167 297° West 250 288 16,000 -60 Descending Edmonton Center
01:30PM 50.1167 -111.8000 302° West 250 288 16,000  Level Edmonton Center
01:31PM 50.1500 -111.9167 294° West 250 288 16,000  Level Edmonton Center
01:32PM 50.1833 -112.0000 302° West 250 288 16,000  Level Edmonton Center
01:33PM 50.2167 -112.1167 294° West 250 288 16,000  Level Edmonton Center
01:34PM 50.2500 -112.2000 302° West 250 288 16,000  Level Edmonton Center
01:35PM 50.2833 -112.2833 302° West 250 288 16,000  Level Edmonton Center
01:36PM 50.3167 -112.3833 298° West 250 288 16,000  Level Edmonton Center
01:37PM 50.3500 -112.4833 298° West 240 276 16,000  Level Edmonton Center
01:38PM 50.3833 -112.5667 302° West 250 288 16,000  Level Edmonton Center
01:39PM 50.4167 -112.6667 298° West 250 288 16,000 -60 Level Edmonton Center
01:40PM 50.4500 -112.7667 298° West 240 276 15,900 -60 Descending Edmonton Center
01:41PM 50.4833 -112.8500 302° West 250 288 15,900  Level Edmonton Center
01:42PM 50.5333 -112.9667 304° West 250 288 16,000  Climbing Edmonton Center
01:43PM 50.5500 -113.0500 288° West 250 288 15,900 -60 Descending Edmonton Center
01:44PM 50.5833 -113.1333 302° West 240 276 15,900  Level Edmonton Center
01:45PM 50.6000 -113.2333 285° West 250 288 15,900 -60 Level Edmonton Center
01:46PM 50.6500 -113.3333 308° West 240 276 15,800 -420 Descending Edmonton Center
01:47PM 50.7000 -113.4167 313° West 260 299 15,100 -840 Descending Edmonton Center
01:48PM 50.7500 -113.5167 308° West 280 322 14,200 -900 Descending Edmonton Center
01:49PM 50.8000 -113.6000 314° West 280 322 13,300 -900 Descending Edmonton Center
01:50PM 50.8667 -113.6667 328° Northwest 280 322 12,500 -840 Descending Edmonton Center
01:51PM 50.9167 -113.7500 314° West 270 311 11,700 -840 Descending Edmonton Center
01:52PM 50.9667 -113.8500 308° West 270 311 10,900 -900 Descending Edmonton Center
01:53PM 51.0500 -113.8833 346° North 290 334 10,000 -900 Descending Edmonton Center
01:54PM 51.1167 -113.9000 351° North 280 322 9,100 -900 Descending Edmonton Center
01:55PM 51.2000 -113.9167 353° North 260 299 8,200 -660 Descending Edmonton Center
01:56PM 51.2500 -113.9333 348° North 210 242 7,800 -780 Descending Edmonton Center
01:57PM 51.2333 -114.0333 255° West 200 230 6,700 -1,140 Descending Edmonton Center
01:58PM 51.1833 -114.0500 192° South 180 207 5,600 -1,200 Descending Edmonton Center
01:59PM 51.1333 -114.0500 180° South 140 161 4,400 -1,020 Descending Edmonton Center
02:00PM 51.1000 -114.0333 163° South 130 150 3,600 -840 Descending Edmonton Center